Aviation Digital Data Service (ADDS)

Output produced by METARs form (0322 UTC 26 March 2017)
found at http://www.aviationweather.gov/adds/metars/
 
METAR text: EPBY 260300Z VRB02KT 6000 NSC M04/M04 Q1024
Conditions at: EPBY (BYDGOSZCZ , PL) observed 0300 UTC 26 March 2017
Temperature: -4.0°C (25°F)
Dewpoint: -4.0°C (25°F) [RH = 100%]
Pressure (altimeter): 30.24 inches Hg (1024.0 mb)
Winds: variable direction winds at 2 MPH (2 knots; 1.0 m/s)
Visibility: 4 miles (6 km)
Ceiling: at least 12,000 feet AGL
Clouds: sky clear below 12,000 feet AGL
Weather: no significant weather observed at this time

Forecast for: EPBY (BYDGOSZCZ , PL)
Text: TAF EPBY 252330Z 2600/2624 34010KT CAVOK
Forecast period: 0000 UTC 26 March 2017 to 0000 UTC 27 March 2017
Forecast type: FROM: standard forecast or significant change
Winds: from the NNW (340 degrees) at 12 MPH (10 knots; 5.2 m/s)
Visibility: 6 or more miles (10+ km)
Clouds: not forecast
Weather: NSW  (no significant weather)
Text: PROB40 2602/2607 4000 BR
Forecast period: 0200 to 0700 UTC 26 March 2017
Forecast type: PROBABLE: 40 percent likelihood of the following during this time
Visibility: 2.49 miles (4.01 km)
Weather: BR  (mist)